sensor_id;sensor_type;location;lat;lon;timestamp;P1;durP1;ratioP1;P2;durP2;ratioP2
16480;SDS011;44634;54.110;12.138;2022-10-04T00:02:15;10.57;;;2.50;;
16480;SDS011;44634;54.110;12.138;2022-10-04T00:04:50;10.87;;;2.90;;
16480;SDS011;44634;54.110;12.138;2022-10-04T00:07:23;10.37;;;2.70;;
16480;SDS011;44634;54.110;12.138;2022-10-04T00:09:55;10.67;;;3.10;;
16480;SDS011;44634;54.110;12.138;2022-10-04T00:12:26;9.77;;;2.50;;
16480;SDS011;44634;54.110;12.138;2022-10-04T00:14:57;9.17;;;2.67;;
16480;SDS011;44634;54.110;12.138;2022-10-04T00:17:28;15.10;;;2.87;;
16480;SDS011;44634;54.110;12.138;2022-10-04T00:20:01;12.63;;;3.20;;
16480;SDS011;44634;54.110;12.138;2022-10-04T00:22:30;10.00;;;2.70;;
16480;SDS011;44634;54.110;12.138;2022-10-04T00:30:42;11.30;;;3.00;;
16480;SDS011;44634;54.110;12.138;2022-10-04T00:33:11;10.73;;;2.93;;
16480;SDS011;44634;54.110;12.138;2022-10-04T00:36:18;9.83;;;3.17;;
16480;SDS011;44634;54.110;12.138;2022-10-04T00:39:37;15.37;;;3.00;;
16480;SDS011;44634;54.110;12.138;2022-10-04T00:42:19;6.83;;;2.50;;
16480;SDS011;44634;54.110;12.138;2022-10-04T00:45:10;11.23;;;2.93;;
16480;SDS011;44634;54.110;12.138;2022-10-04T00:47:57;10.07;;;2.90;;
16480;SDS011;44634;54.110;12.138;2022-10-04T00:50:57;12.60;;;3.50;;
16480;SDS011;44634;54.110;12.138;2022-10-04T00:53:39;7.37;;;2.43;;
16480;SDS011;44634;54.110;12.138;2022-10-04T00:56:15;11.83;;;2.80;;
16480;SDS011;44634;54.110;12.138;2022-10-04T00:58:59;10.50;;;2.70;;
16480;SDS011;44634;54.110;12.138;2022-10-04T01:01:32;8.50;;;2.83;;
16480;SDS011;44634;54.110;12.138;2022-10-04T01:04:05;10.90;;;2.87;;
16480;SDS011;44634;54.110;12.138;2022-10-04T01:06:41;8.10;;;2.20;;
16480;SDS011;44634;54.110;12.138;2022-10-04T01:09:10;12.37;;;2.50;;
16480;SDS011;44634;54.110;12.138;2022-10-04T01:11:40;8.00;;;2.33;;
16480;SDS011;44634;54.110;12.138;2022-10-04T01:14:13;9.77;;;3.20;;
16480;SDS011;44634;54.110;12.138;2022-10-04T01:16:46;10.33;;;2.80;;
16480;SDS011;44634;54.110;12.138;2022-10-04T01:19:25;6.63;;;2.60;;
16480;SDS011;44634;54.110;12.138;2022-10-04T01:22:01;7.70;;;2.23;;
16480;SDS011;44634;54.110;12.138;2022-10-04T01:24:45;13.03;;;2.83;;
16480;SDS011;44634;54.110;12.138;2022-10-04T01:27:36;12.73;;;3.37;;
16480;SDS011;44634;54.110;12.138;2022-10-04T01:30:07;10.43;;;2.73;;
16480;SDS011;44634;54.110;12.138;2022-10-04T01:32:38;11.33;;;2.87;;
16480;SDS011;44634;54.110;12.138;2022-10-04T01:35:07;10.40;;;2.83;;
16480;SDS011;44634;54.110;12.138;2022-10-04T01:37:38;12.37;;;3.17;;
16480;SDS011;44634;54.110;12.138;2022-10-04T01:40:08;11.70;;;2.73;;
16480;SDS011;44634;54.110;12.138;2022-10-04T01:42:39;10.77;;;3.03;;
16480;SDS011;44634;54.110;12.138;2022-10-04T01:45:13;9.17;;;2.90;;
16480;SDS011;44634;54.110;12.138;2022-10-04T01:47:47;13.03;;;3.63;;
16480;SDS011;44634;54.110;12.138;2022-10-04T01:50:22;11.37;;;2.60;;
16480;SDS011;44634;54.110;12.138;2022-10-04T01:52:55;11.07;;;2.70;;
16480;SDS011;44634;54.110;12.138;2022-10-04T01:55:34;12.90;;;3.10;;
16480;SDS011;44634;54.110;12.138;2022-10-04T01:58:07;13.23;;;3.47;;
16480;SDS011;44634;54.110;12.138;2022-10-04T02:00:42;16.33;;;3.50;;
16480;SDS011;44634;54.110;12.138;2022-10-04T02:03:17;14.43;;;3.27;;
16480;SDS011;44634;54.110;12.138;2022-10-04T02:05:49;16.43;;;3.10;;
16480;SDS011;44634;54.110;12.138;2022-10-04T02:08:22;12.90;;;3.10;;
16480;SDS011;44634;54.110;12.138;2022-10-04T02:10:55;12.80;;;3.00;;
16480;SDS011;44634;54.110;12.138;2022-10-04T02:13:25;16.03;;;3.57;;
16480;SDS011;44634;54.110;12.138;2022-10-04T02:15:55;12.90;;;3.63;;
16480;SDS011;44634;54.110;12.138;2022-10-04T02:18:25;12.50;;;3.87;;
16480;SDS011;44634;54.110;12.138;2022-10-04T02:20:54;10.33;;;3.40;;
16480;SDS011;44634;54.110;12.138;2022-10-04T02:23:22;14.30;;;3.40;;
16480;SDS011;44634;54.110;12.138;2022-10-04T02:25:51;15.40;;;3.50;;
16480;SDS011;44634;54.110;12.138;2022-10-04T02:28:21;12.37;;;3.50;;
16480;SDS011;44634;54.110;12.138;2022-10-04T02:30:49;14.23;;;3.10;;
16480;SDS011;44634;54.110;12.138;2022-10-04T02:33:38;15.90;;;3.63;;
16480;SDS011;44634;54.110;12.138;2022-10-04T02:36:08;10.73;;;3.87;;
16480;SDS011;44634;54.110;12.138;2022-10-04T02:38:38;15.37;;;3.27;;
16480;SDS011;44634;54.110;12.138;2022-10-04T02:41:09;12.90;;;3.57;;
16480;SDS011;44634;54.110;12.138;2022-10-04T02:43:49;14.23;;;3.07;;
16480;SDS011;44634;54.110;12.138;2022-10-04T02:46:22;14.97;;;3.40;;
16480;SDS011;44634;54.110;12.138;2022-10-04T02:48:54;9.63;;;3.10;;
16480;SDS011;44634;54.110;12.138;2022-10-04T02:51:25;9.13;;;3.10;;
16480;SDS011;44634;54.110;12.138;2022-10-04T02:54:00;10.33;;;3.20;;
16480;SDS011;44634;54.110;12.138;2022-10-04T02:56:31;9.97;;;2.77;;
16480;SDS011;44634;54.110;12.138;2022-10-04T02:59:02;10.23;;;3.00;;
16480;SDS011;44634;54.110;12.138;2022-10-04T03:01:38;8.27;;;2.73;;
16480;SDS011;44634;54.110;12.138;2022-10-04T03:04:10;11.77;;;3.13;;
16480;SDS011;44634;54.110;12.138;2022-10-04T03:06:41;7.93;;;2.70;;
16480;SDS011;44634;54.110;12.138;2022-10-04T03:09:11;11.43;;;3.57;;
16480;SDS011;44634;54.110;12.138;2022-10-04T03:11:40;11.23;;;3.13;;
16480;SDS011;44634;54.110;12.138;2022-10-04T03:14:12;9.70;;;2.93;;
16480;SDS011;44634;54.110;12.138;2022-10-04T03:16:43;12.07;;;3.00;;
16480;SDS011;44634;54.110;12.138;2022-10-04T03:19:11;11.50;;;3.07;;
16480;SDS011;44634;54.110;12.138;2022-10-04T03:21:42;14.03;;;3.00;;
16480;SDS011;44634;54.110;12.138;2022-10-04T03:24:14;14.20;;;3.30;;
16480;SDS011;44634;54.110;12.138;2022-10-04T03:26:45;9.90;;;2.97;;
16480;SDS011;44634;54.110;12.138;2022-10-04T03:29:17;14.10;;;3.23;;
16480;SDS011;44634;54.110;12.138;2022-10-04T03:31:48;9.87;;;2.80;;
16480;SDS011;44634;54.110;12.138;2022-10-04T03:34:19;12.23;;;3.10;;
16480;SDS011;44634;54.110;12.138;2022-10-04T03:36:50;9.83;;;3.30;;
16480;SDS011;44634;54.110;12.138;2022-10-04T03:39:24;13.87;;;3.53;;
16480;SDS011;44634;54.110;12.138;2022-10-04T03:41:54;16.83;;;3.83;;
16480;SDS011;44634;54.110;12.138;2022-10-04T03:44:25;13.60;;;3.60;;
16480;SDS011;44634;54.110;12.138;2022-10-04T03:46:53;13.97;;;3.00;;
16480;SDS011;44634;54.110;12.138;2022-10-04T03:49:24;13.50;;;3.83;;
16480;SDS011;44634;54.110;12.138;2022-10-04T03:51:58;12.93;;;3.30;;
16480;SDS011;44634;54.110;12.138;2022-10-04T03:54:27;13.80;;;3.20;;
16480;SDS011;44634;54.110;12.138;2022-10-04T03:56:56;8.67;;;2.83;;
16480;SDS011;44634;54.110;12.138;2022-10-04T03:59:26;12.90;;;3.17;;
16480;SDS011;44634;54.110;12.138;2022-10-04T04:02:01;14.37;;;3.37;;
16480;SDS011;44634;54.110;12.138;2022-10-04T04:04:41;16.80;;;3.27;;
16480;SDS011;44634;54.110;12.138;2022-10-04T04:07:16;11.30;;;3.57;;
16480;SDS011;44634;54.110;12.138;2022-10-04T04:09:50;16.53;;;3.40;;
16480;SDS011;44634;54.110;12.138;2022-10-04T04:12:23;11.77;;;3.60;;
16480;SDS011;44634;54.110;12.138;2022-10-04T04:15:00;12.60;;;3.67;;
16480;SDS011;44634;54.110;12.138;2022-10-04T04:17:36;9.33;;;3.00;;
16480;SDS011;44634;54.110;12.138;2022-10-04T04:20:12;15.97;;;3.33;;
16480;SDS011;44634;54.110;12.138;2022-10-04T04:22:48;12.33;;;3.33;;
16480;SDS011;44634;54.110;12.138;2022-10-04T04:25:24;11.60;;;3.97;;
16480;SDS011;44634;54.110;12.138;2022-10-04T04:27:58;16.40;;;4.27;;
16480;SDS011;44634;54.110;12.138;2022-10-04T04:30:31;12.53;;;3.67;;
16480;SDS011;44634;54.110;12.138;2022-10-04T04:33:05;14.50;;;3.20;;
16480;SDS011;44634;54.110;12.138;2022-10-04T04:35:37;17.90;;;4.00;;
16480;SDS011;44634;54.110;12.138;2022-10-04T04:38:13;14.27;;;3.83;;
16480;SDS011;44634;54.110;12.138;2022-10-04T04:40:44;14.53;;;3.57;;
16480;SDS011;44634;54.110;12.138;2022-10-04T04:43:13;14.80;;;3.57;;
16480;SDS011;44634;54.110;12.138;2022-10-04T04:45:47;11.90;;;3.33;;
16480;SDS011;44634;54.110;12.138;2022-10-04T04:48:36;19.30;;;3.53;;
16480;SDS011;44634;54.110;12.138;2022-10-04T04:51:04;9.77;;;3.57;;
16480;SDS011;44634;54.110;12.138;2022-10-04T04:53:33;11.40;;;2.90;;
16480;SDS011;44634;54.110;12.138;2022-10-04T04:56:03;12.80;;;3.30;;
16480;SDS011;44634;54.110;12.138;2022-10-04T04:58:37;13.20;;;3.53;;
16480;SDS011;44634;54.110;12.138;2022-10-04T05:01:14;12.40;;;3.37;;
16480;SDS011;44634;54.110;12.138;2022-10-04T05:03:58;10.90;;;3.90;;
16480;SDS011;44634;54.110;12.138;2022-10-04T05:06:27;12.97;;;3.33;;
16480;SDS011;44634;54.110;12.138;2022-10-04T05:08:56;11.40;;;3.90;;
16480;SDS011;44634;54.110;12.138;2022-10-04T05:11:25;9.53;;;4.53;;
16480;SDS011;44634;54.110;12.138;2022-10-04T05:13:56;13.70;;;5.30;;
16480;SDS011;44634;54.110;12.138;2022-10-04T05:16:31;12.33;;;6.57;;
16480;SDS011;44634;54.110;12.138;2022-10-04T05:19:04;12.90;;;6.40;;
16480;SDS011;44634;54.110;12.138;2022-10-04T05:21:35;17.97;;;7.53;;
16480;SDS011;44634;54.110;12.138;2022-10-04T05:24:09;18.37;;;7.10;;
16480;SDS011;44634;54.110;12.138;2022-10-04T05:26:39;16.13;;;7.10;;
16480;SDS011;44634;54.110;12.138;2022-10-04T05:29:10;19.17;;;7.77;;
16480;SDS011;44634;54.110;12.138;2022-10-04T05:31:45;18.80;;;7.70;;
16480;SDS011;44634;54.110;12.138;2022-10-04T05:34:21;23.47;;;9.03;;
16480;SDS011;44634;54.110;12.138;2022-10-04T05:39:51;19.20;;;8.60;;
16480;SDS011;44634;54.110;12.138;2022-10-04T05:42:31;16.03;;;8.33;;
16480;SDS011;44634;54.110;12.138;2022-10-04T05:45:10;23.67;;;9.00;;
16480;SDS011;44634;54.110;12.138;2022-10-04T05:47:43;14.13;;;8.60;;
16480;SDS011;44634;54.110;12.138;2022-10-04T05:50:14;21.27;;;7.90;;
16480;SDS011;44634;54.110;12.138;2022-10-04T05:52:43;12.60;;;7.63;;
16480;SDS011;44634;54.110;12.138;2022-10-04T05:55:16;16.23;;;7.27;;
16480;SDS011;44634;54.110;12.138;2022-10-04T06:04:00;15.50;;;6.03;;
16480;SDS011;44634;54.110;12.138;2022-10-04T06:06:41;9.57;;;5.87;;
16480;SDS011;44634;54.110;12.138;2022-10-04T06:09:18;12.17;;;5.37;;
16480;SDS011;44634;54.110;12.138;2022-10-04T06:12:03;14.37;;;5.97;;
16480;SDS011;44634;54.110;12.138;2022-10-04T06:14:45;10.47;;;5.30;;
16480;SDS011;44634;54.110;12.138;2022-10-04T06:17:27;12.70;;;4.93;;
16480;SDS011;44634;54.110;12.138;2022-10-04T06:20:10;17.17;;;5.60;;
16480;SDS011;44634;54.110;12.138;2022-10-04T06:22:56;9.20;;;5.07;;
16480;SDS011;44634;54.110;12.138;2022-10-04T06:25:27;10.77;;;4.37;;
16480;SDS011;44634;54.110;12.138;2022-10-04T06:28:01;9.77;;;4.37;;
16480;SDS011;44634;54.110;12.138;2022-10-04T06:30:39;14.50;;;5.37;;
16480;SDS011;44634;54.110;12.138;2022-10-04T06:33:22;13.63;;;5.37;;
16480;SDS011;44634;54.110;12.138;2022-10-04T06:36:13;10.23;;;4.93;;
16480;SDS011;44634;54.110;12.138;2022-10-04T06:42:03;14.63;;;5.70;;
16480;SDS011;44634;54.110;12.138;2022-10-04T06:44:43;11.43;;;5.10;;
16480;SDS011;44634;54.110;12.138;2022-10-04T06:47:30;13.30;;;6.33;;
16480;SDS011;44634;54.110;12.138;2022-10-04T06:50:16;10.57;;;5.57;;
16480;SDS011;44634;54.110;12.138;2022-10-04T06:52:56;10.00;;;5.77;;
16480;SDS011;44634;54.110;12.138;2022-10-04T06:55:40;12.73;;;5.67;;
16480;SDS011;44634;54.110;12.138;2022-10-04T06:58:23;8.43;;;4.97;;
16480;SDS011;44634;54.110;12.138;2022-10-04T07:01:14;10.73;;;5.10;;
16480;SDS011;44634;54.110;12.138;2022-10-04T07:03:51;12.93;;;6.00;;
16480;SDS011;44634;54.110;12.138;2022-10-04T07:06:22;8.07;;;4.93;;
16480;SDS011;44634;54.110;12.138;2022-10-04T07:08:55;9.57;;;4.83;;
16480;SDS011;44634;54.110;12.138;2022-10-04T07:11:29;11.37;;;4.93;;
16480;SDS011;44634;54.110;12.138;2022-10-04T07:14:03;6.60;;;5.30;;
16480;SDS011;44634;54.110;12.138;2022-10-04T07:16:39;9.60;;;5.47;;
16480;SDS011;44634;54.110;12.138;2022-10-04T07:19:25;8.63;;;6.00;;
16480;SDS011;44634;54.110;12.138;2022-10-04T07:22:02;7.60;;;6.00;;
16480;SDS011;44634;54.110;12.138;2022-10-04T07:24:50;7.07;;;5.13;;
16480;SDS011;44634;54.110;12.138;2022-10-04T07:27:26;8.97;;;5.53;;
16480;SDS011;44634;54.110;12.138;2022-10-04T07:29:57;7.23;;;5.47;;
16480;SDS011;44634;54.110;12.138;2022-10-04T07:32:27;10.10;;;5.80;;
16480;SDS011;44634;54.110;12.138;2022-10-04T07:35:00;8.70;;;5.60;;
16480;SDS011;44634;54.110;12.138;2022-10-04T07:37:32;9.97;;;5.23;;
16480;SDS011;44634;54.110;12.138;2022-10-04T07:40:17;7.47;;;4.77;;
16480;SDS011;44634;54.110;12.138;2022-10-04T07:42:50;7.40;;;4.60;;
16480;SDS011;44634;54.110;12.138;2022-10-04T07:45:21;6.93;;;4.77;;
16480;SDS011;44634;54.110;12.138;2022-10-04T07:48:00;5.57;;;4.37;;
16480;SDS011;44634;54.110;12.138;2022-10-04T07:50:31;8.57;;;5.30;;
16480;SDS011;44634;54.110;12.138;2022-10-04T07:53:04;6.20;;;4.87;;
16480;SDS011;44634;54.110;12.138;2022-10-04T07:55:47;11.17;;;5.37;;
16480;SDS011;44634;54.110;12.138;2022-10-04T07:58:24;10.27;;;6.30;;
16480;SDS011;44634;54.110;12.138;2022-10-04T08:00:58;8.40;;;5.77;;
16480;SDS011;44634;54.110;12.138;2022-10-04T08:03:37;9.17;;;7.40;;
16480;SDS011;44634;54.110;12.138;2022-10-04T08:06:16;12.37;;;7.53;;
16480;SDS011;44634;54.110;12.138;2022-10-04T08:08:54;9.60;;;7.40;;
16480;SDS011;44634;54.110;12.138;2022-10-04T08:11:42;9.20;;;8.13;;
16480;SDS011;44634;54.110;12.138;2022-10-04T08:14:23;11.83;;;8.67;;
16480;SDS011;44634;54.110;12.138;2022-10-04T08:16:59;13.27;;;8.73;;
16480;SDS011;44634;54.110;12.138;2022-10-04T08:19:43;12.90;;;9.13;;
16480;SDS011;44634;54.110;12.138;2022-10-04T08:22:26;15.40;;;9.83;;
16480;SDS011;44634;54.110;12.138;2022-10-04T08:25:02;16.73;;;10.77;;
16480;SDS011;44634;54.110;12.138;2022-10-04T08:27:54;16.27;;;10.40;;
16480;SDS011;44634;54.110;12.138;2022-10-04T08:30:52;17.13;;;12.03;;
16480;SDS011;44634;54.110;12.138;2022-10-04T08:33:35;15.90;;;10.73;;
16480;SDS011;44634;54.110;12.138;2022-10-04T08:36:24;17.90;;;11.07;;
16480;SDS011;44634;54.110;12.138;2022-10-04T08:38:59;19.20;;;12.27;;
16480;SDS011;44634;54.110;12.138;2022-10-04T08:41:39;19.57;;;13.10;;
16480;SDS011;44634;54.110;12.138;2022-10-04T08:44:30;17.33;;;12.50;;
16480;SDS011;44634;54.110;12.138;2022-10-04T08:53:33;16.30;;;12.23;;
16480;SDS011;44634;54.110;12.138;2022-10-04T08:56:41;22.40;;;12.07;;
16480;SDS011;44634;54.110;12.138;2022-10-04T08:59:38;18.20;;;11.67;;
16480;SDS011;44634;54.110;12.138;2022-10-04T09:02:41;18.00;;;10.80;;
16480;SDS011;44634;54.110;12.138;2022-10-04T09:05:39;16.47;;;9.50;;
16480;SDS011;44634;54.110;12.138;2022-10-04T09:08:45;15.03;;;9.70;;
16480;SDS011;44634;54.110;12.138;2022-10-04T09:11:48;15.57;;;10.20;;
16480;SDS011;44634;54.110;12.138;2022-10-04T09:17:48;16.67;;;9.60;;
16480;SDS011;44634;54.110;12.138;2022-10-04T09:20:22;16.77;;;9.73;;
16480;SDS011;44634;54.110;12.138;2022-10-04T09:23:07;16.83;;;10.13;;
16480;SDS011;44634;54.110;12.138;2022-10-04T09:25:48;20.83;;;11.23;;
16480;SDS011;44634;54.110;12.138;2022-10-04T09:28:36;15.07;;;10.23;;
16480;SDS011;44634;54.110;12.138;2022-10-04T09:31:39;14.53;;;9.97;;
16480;SDS011;44634;54.110;12.138;2022-10-04T09:34:24;13.70;;;8.53;;
16480;SDS011;44634;54.110;12.138;2022-10-04T09:37:13;12.43;;;8.50;;
16480;SDS011;44634;54.110;12.138;2022-10-04T09:43:20;8.13;;;5.60;;
16480;SDS011;44634;54.110;12.138;2022-10-04T09:46:04;8.13;;;5.37;;
16480;SDS011;44634;54.110;12.138;2022-10-04T09:48:43;12.17;;;5.40;;
16480;SDS011;44634;54.110;12.138;2022-10-04T09:51:31;10.60;;;5.83;;
16480;SDS011;44634;54.110;12.138;2022-10-04T09:54:17;9.37;;;4.67;;
16480;SDS011;44634;54.110;12.138;2022-10-04T09:59:57;13.43;;;4.40;;
16480;SDS011;44634;54.110;12.138;2022-10-04T10:02:49;11.47;;;4.30;;
16480;SDS011;44634;54.110;12.138;2022-10-04T10:08:50;7.03;;;4.50;;
16480;SDS011;44634;54.110;12.138;2022-10-04T10:11:28;8.40;;;4.20;;
16480;SDS011;44634;54.110;12.138;2022-10-04T10:17:18;7.73;;;3.93;;
16480;SDS011;44634;54.110;12.138;2022-10-04T10:23:01;8.87;;;4.03;;
16480;SDS011;44634;54.110;12.138;2022-10-04T10:25:45;7.23;;;3.57;;
16480;SDS011;44634;54.110;12.138;2022-10-04T10:28:35;6.67;;;3.43;;
16480;SDS011;44634;54.110;12.138;2022-10-04T10:31:21;9.10;;;3.67;;
16480;SDS011;44634;54.110;12.138;2022-10-04T10:34:02;10.60;;;3.67;;
16480;SDS011;44634;54.110;12.138;2022-10-04T10:37:01;12.73;;;3.87;;
16480;SDS011;44634;54.110;12.138;2022-10-04T10:48:37;7.97;;;3.27;;
16480;SDS011;44634;54.110;12.138;2022-10-04T10:51:34;7.30;;;3.33;;
16480;SDS011;44634;54.110;12.138;2022-10-04T10:54:29;6.80;;;3.27;;
16480;SDS011;44634;54.110;12.138;2022-10-04T10:57:14;9.40;;;4.10;;
16480;SDS011;44634;54.110;12.138;2022-10-04T11:00:09;9.17;;;3.67;;
16480;SDS011;44634;54.110;12.138;2022-10-04T11:02:58;9.77;;;3.77;;
16480;SDS011;44634;54.110;12.138;2022-10-04T11:09:12;9.63;;;3.67;;
16480;SDS011;44634;54.110;12.138;2022-10-04T11:18:11;6.43;;;3.07;;
16480;SDS011;44634;54.110;12.138;2022-10-04T11:21:13;11.70;;;3.57;;
16480;SDS011;44634;54.110;12.138;2022-10-04T11:27:12;8.70;;;3.00;;
16480;SDS011;44634;54.110;12.138;2022-10-04T11:29:53;6.20;;;2.90;;
16480;SDS011;44634;54.110;12.138;2022-10-04T11:35:37;10.90;;;3.80;;
16480;SDS011;44634;54.110;12.138;2022-10-04T11:38:14;11.17;;;4.13;;
16480;SDS011;44634;54.110;12.138;2022-10-04T11:41:02;8.40;;;3.63;;
16480;SDS011;44634;54.110;12.138;2022-10-04T11:43:46;9.10;;;4.00;;
16480;SDS011;44634;54.110;12.138;2022-10-04T11:46:34;8.93;;;4.10;;
16480;SDS011;44634;54.110;12.138;2022-10-04T11:49:27;9.77;;;4.13;;
16480;SDS011;44634;54.110;12.138;2022-10-04T11:52:19;10.43;;;4.13;;
16480;SDS011;44634;54.110;12.138;2022-10-04T11:55:23;6.77;;;3.30;;
16480;SDS011;44634;54.110;12.138;2022-10-04T11:58:23;7.33;;;3.73;;
16480;SDS011;44634;54.110;12.138;2022-10-04T12:04:21;10.87;;;3.37;;
16480;SDS011;44634;54.110;12.138;2022-10-04T12:07:09;9.03;;;2.93;;
16480;SDS011;44634;54.110;12.138;2022-10-04T12:09:53;8.43;;;3.00;;
16480;SDS011;44634;54.110;12.138;2022-10-04T12:12:42;5.83;;;2.40;;
16480;SDS011;44634;54.110;12.138;2022-10-04T12:15:37;5.83;;;2.77;;
16480;SDS011;44634;54.110;12.138;2022-10-04T12:18:27;8.93;;;2.77;;
16480;SDS011;44634;54.110;12.138;2022-10-04T12:21:17;8.07;;;2.90;;
16480;SDS011;44634;54.110;12.138;2022-10-04T12:23:59;7.13;;;2.93;;
16480;SDS011;44634;54.110;12.138;2022-10-04T12:32:51;8.40;;;2.90;;
16480;SDS011;44634;54.110;12.138;2022-10-04T12:35:31;8.50;;;2.90;;
16480;SDS011;44634;54.110;12.138;2022-10-04T12:38:16;8.17;;;3.50;;
16480;SDS011;44634;54.110;12.138;2022-10-04T12:40:54;9.63;;;3.70;;
16480;SDS011;44634;54.110;12.138;2022-10-04T12:43:33;6.30;;;3.07;;
16480;SDS011;44634;54.110;12.138;2022-10-04T12:46:15;8.20;;;3.20;;
16480;SDS011;44634;54.110;12.138;2022-10-04T12:48:58;8.13;;;3.17;;
16480;SDS011;44634;54.110;12.138;2022-10-04T12:51:35;9.60;;;3.00;;
16480;SDS011;44634;54.110;12.138;2022-10-04T12:54:13;7.53;;;2.90;;
16480;SDS011;44634;54.110;12.138;2022-10-04T12:56:52;6.17;;;2.80;;
16480;SDS011;44634;54.110;12.138;2022-10-04T12:59:39;8.83;;;3.40;;
16480;SDS011;44634;54.110;12.138;2022-10-04T13:02:22;9.50;;;3.23;;
16480;SDS011;44634;54.110;12.138;2022-10-04T13:05:01;4.07;;;2.50;;
16480;SDS011;44634;54.110;12.138;2022-10-04T13:07:40;7.03;;;3.53;;
16480;SDS011;44634;54.110;12.138;2022-10-04T13:10:26;6.90;;;2.97;;
16480;SDS011;44634;54.110;12.138;2022-10-04T13:13:17;8.17;;;3.03;;
16480;SDS011;44634;54.110;12.138;2022-10-04T13:15:56;7.43;;;2.60;;
16480;SDS011;44634;54.110;12.138;2022-10-04T13:18:56;8.93;;;3.50;;
16480;SDS011;44634;54.110;12.138;2022-10-04T13:25:00;3.90;;;2.60;;
16480;SDS011;44634;54.110;12.138;2022-10-04T13:27:45;5.10;;;2.90;;
16480;SDS011;44634;54.110;12.138;2022-10-04T13:30:18;7.63;;;3.60;;
16480;SDS011;44634;54.110;12.138;2022-10-04T13:32:52;3.33;;;2.70;;
16480;SDS011;44634;54.110;12.138;2022-10-04T13:35:26;5.93;;;2.80;;
16480;SDS011;44634;54.110;12.138;2022-10-04T13:41:12;4.57;;;3.07;;
16480;SDS011;44634;54.110;12.138;2022-10-04T13:47:04;6.27;;;3.10;;
16480;SDS011;44634;54.110;12.138;2022-10-04T13:49:53;6.80;;;3.00;;
16480;SDS011;44634;54.110;12.138;2022-10-04T13:52:38;6.53;;;3.10;;
16480;SDS011;44634;54.110;12.138;2022-10-04T13:55:32;4.63;;;3.17;;
16480;SDS011;44634;54.110;12.138;2022-10-04T13:58:26;7.13;;;2.67;;
16480;SDS011;44634;54.110;12.138;2022-10-04T14:04:07;7.10;;;3.03;;
16480;SDS011;44634;54.110;12.138;2022-10-04T14:07:10;6.83;;;2.80;;
16480;SDS011;44634;54.110;12.138;2022-10-04T14:10:02;5.43;;;2.77;;
16480;SDS011;44634;54.110;12.138;2022-10-04T14:13:04;9.23;;;3.80;;
16480;SDS011;44634;54.110;12.138;2022-10-04T14:28:40;7.53;;;3.33;;
16480;SDS011;44634;54.110;12.138;2022-10-04T14:31:38;8.33;;;3.00;;
16480;SDS011;44634;54.110;12.138;2022-10-04T14:34:29;5.63;;;2.73;;
16480;SDS011;44634;54.110;12.138;2022-10-04T14:40:32;6.37;;;2.73;;
16480;SDS011;44634;54.110;12.138;2022-10-04T14:43:21;7.20;;;3.40;;
16480;SDS011;44634;54.110;12.138;2022-10-04T14:46:16;8.53;;;3.10;;
16480;SDS011;44634;54.110;12.138;2022-10-04T14:48:58;6.00;;;2.93;;
16480;SDS011;44634;54.110;12.138;2022-10-04T14:54:33;3.70;;;2.73;;
16480;SDS011;44634;54.110;12.138;2022-10-04T14:57:09;5.03;;;2.70;;
16480;SDS011;44634;54.110;12.138;2022-10-04T15:02:48;6.57;;;3.10;;
16480;SDS011;44634;54.110;12.138;2022-10-04T15:05:42;10.10;;;3.63;;
16480;SDS011;44634;54.110;12.138;2022-10-04T15:08:36;7.83;;;3.20;;
16480;SDS011;44634;54.110;12.138;2022-10-04T15:11:16;8.30;;;2.90;;
16480;SDS011;44634;54.110;12.138;2022-10-04T15:13:49;10.07;;;3.10;;
16480;SDS011;44634;54.110;12.138;2022-10-04T15:16:27;6.57;;;2.60;;
16480;SDS011;44634;54.110;12.138;2022-10-04T15:19:21;6.20;;;2.53;;
16480;SDS011;44634;54.110;12.138;2022-10-04T15:21:57;3.63;;;2.30;;
16480;SDS011;44634;54.110;12.138;2022-10-04T15:24:30;6.57;;;2.70;;
16480;SDS011;44634;54.110;12.138;2022-10-04T15:27:20;6.53;;;2.87;;
16480;SDS011;44634;54.110;12.138;2022-10-04T15:29:59;6.97;;;2.63;;
16480;SDS011;44634;54.110;12.138;2022-10-04T15:32:36;5.37;;;3.00;;
16480;SDS011;44634;54.110;12.138;2022-10-04T15:35:14;4.90;;;2.57;;
16480;SDS011;44634;54.110;12.138;2022-10-04T15:37:50;4.43;;;2.90;;
16480;SDS011;44634;54.110;12.138;2022-10-04T15:40:26;7.80;;;2.97;;
16480;SDS011;44634;54.110;12.138;2022-10-04T15:43:21;6.07;;;2.63;;
16480;SDS011;44634;54.110;12.138;2022-10-04T15:46:04;4.83;;;2.40;;
16480;SDS011;44634;54.110;12.138;2022-10-04T15:52:00;6.00;;;2.73;;
16480;SDS011;44634;54.110;12.138;2022-10-04T15:55:02;8.03;;;3.10;;
16480;SDS011;44634;54.110;12.138;2022-10-04T15:57:48;4.37;;;2.50;;
16480;SDS011;44634;54.110;12.138;2022-10-04T16:00:45;8.87;;;3.13;;
16480;SDS011;44634;54.110;12.138;2022-10-04T16:03:21;8.67;;;2.77;;
16480;SDS011;44634;54.110;12.138;2022-10-04T16:06:05;9.60;;;3.03;;
16480;SDS011;44634;54.110;12.138;2022-10-04T16:08:45;7.27;;;3.20;;
16480;SDS011;44634;54.110;12.138;2022-10-04T16:17:41;6.73;;;4.50;;
16480;SDS011;44634;54.110;12.138;2022-10-04T16:23:22;10.10;;;4.13;;
16480;SDS011;44634;54.110;12.138;2022-10-04T16:25:54;8.07;;;3.67;;
16480;SDS011;44634;54.110;12.138;2022-10-04T16:28:27;10.03;;;3.77;;
16480;SDS011;44634;54.110;12.138;2022-10-04T16:31:16;8.03;;;4.37;;
16480;SDS011;44634;54.110;12.138;2022-10-04T16:33:57;6.20;;;3.80;;
16480;SDS011;44634;54.110;12.138;2022-10-04T16:36:40;7.67;;;4.23;;
16480;SDS011;44634;54.110;12.138;2022-10-04T16:39:27;8.70;;;4.67;;
16480;SDS011;44634;54.110;12.138;2022-10-04T16:42:17;9.17;;;4.30;;
16480;SDS011;44634;54.110;12.138;2022-10-04T16:44:50;11.57;;;4.37;;
16480;SDS011;44634;54.110;12.138;2022-10-04T16:47:21;7.80;;;3.80;;
16480;SDS011;44634;54.110;12.138;2022-10-04T16:49:56;7.80;;;4.40;;
16480;SDS011;44634;54.110;12.138;2022-10-04T16:52:43;14.87;;;5.60;;
16480;SDS011;44634;54.110;12.138;2022-10-04T16:55:32;7.20;;;4.13;;
16480;SDS011;44634;54.110;12.138;2022-10-04T17:01:31;7.90;;;5.00;;
16480;SDS011;44634;54.110;12.138;2022-10-04T17:07:37;6.43;;;4.57;;
16480;SDS011;44634;54.110;12.138;2022-10-04T17:10:18;5.00;;;4.50;;
16480;SDS011;44634;54.110;12.138;2022-10-04T17:12:59;7.00;;;5.13;;
16480;SDS011;44634;54.110;12.138;2022-10-04T17:15:40;8.53;;;4.90;;
16480;SDS011;44634;54.110;12.138;2022-10-04T17:18:25;8.43;;;4.97;;
16480;SDS011;44634;54.110;12.138;2022-10-04T17:21:11;7.23;;;5.40;;
16480;SDS011;44634;54.110;12.138;2022-10-04T17:26:50;6.93;;;4.67;;
16480;SDS011;44634;54.110;12.138;2022-10-04T17:29:35;8.40;;;4.93;;
16480;SDS011;44634;54.110;12.138;2022-10-04T17:32:17;6.87;;;5.00;;
16480;SDS011;44634;54.110;12.138;2022-10-04T17:34:56;10.00;;;5.50;;
16480;SDS011;44634;54.110;12.138;2022-10-04T17:37:38;6.40;;;5.03;;
16480;SDS011;44634;54.110;12.138;2022-10-04T17:40:26;6.40;;;4.90;;
16480;SDS011;44634;54.110;12.138;2022-10-04T17:43:06;8.30;;;5.30;;
16480;SDS011;44634;54.110;12.138;2022-10-04T17:48:41;9.77;;;4.73;;
16480;SDS011;44634;54.110;12.138;2022-10-04T17:51:37;8.57;;;4.90;;
16480;SDS011;44634;54.110;12.138;2022-10-04T17:54:27;8.23;;;4.70;;
16480;SDS011;44634;54.110;12.138;2022-10-04T17:57:18;9.20;;;5.40;;
16480;SDS011;44634;54.110;12.138;2022-10-04T17:59:53;15.83;;;5.40;;
16480;SDS011;44634;54.110;12.138;2022-10-04T18:02:48;10.23;;;6.10;;